Time;durP1;ratioP1;P1;durP2;ratioP2;P2;SDS_P1;SDS_P2;PMS_P1;PMS_P2;Temp;Humidity;BMP_temperature;BMP_pressure;BME280_temperature;BME280_humidity;BME280_pressure;Samples;Min_cycle;Max_cycle;Signal;HPM_P1;HPM_P2
2020/12/04 00:02:13;;;;;;;20.57;13.77;;;;;;;0.04;77.53;93483.72;5097505;28;20192;-78
2020/12/04 00:04:39;;;;;;;18.57;13.93;;;;;;;0.15;76.44;93468.19;5088760;28;20234;-78
2020/12/04 00:07:06;;;;;;;18.67;13.53;;;;;;;0.25;76.24;93476.34;5098854;28;20197;-78
2020/12/04 00:09:34;;;;;;;20.13;13.03;;;;;;;0.16;76.55;93477.34;5091130;28;20252;-78
2020/12/04 00:12:00;;;;;;;18.63;13.67;;;;;;;0.18;76.47;93467.06;5103031;28;20690;-78
2020/12/04 00:14:26;;;;;;;19.77;13.80;;;;;;;0.08;76.57;93472.31;5098285;28;20692;-78
2020/12/04 00:16:56;;;;;;;19.33;13.67;;;;;;;0.19;76.13;93466.88;5100616;28;20195;-78
2020/12/04 00:19:22;;;;;;;18.67;13.27;;;;;;;0.30;75.35;93470.78;5111754;28;20672;-78
2020/12/04 00:21:50;;;;;;;17.87;13.93;;;;;;;0.41;74.84;93469.59;5103086;28;20791;-78
2020/12/04 00:24:16;;;;;;;18.37;13.40;;;;;;;0.45;74.98;93473.38;5103068;28;20204;-78
2020/12/04 00:26:42;;;;;;;18.03;13.77;;;;;;;0.46;74.54;93467.38;5103540;28;20570;-78
2020/12/04 00:29:08;;;;;;;19.00;13.93;;;;;;;0.43;74.67;93465.97;5091399;28;20227;-78
2020/12/04 00:31:34;;;;;;;18.30;13.80;;;;;;;0.42;75.08;93464.38;5079084;28;20225;-78
2020/12/04 00:34:01;;;;;;;18.93;13.67;;;;;;;0.35;75.11;93460.97;5102371;28;20272;-78
2020/12/04 00:36:30;;;;;;;16.60;12.33;;;;;;;0.36;75.67;93462.53;5095621;28;20816;-78
2020/12/04 00:38:57;;;;;;;19.37;14.87;;;;;;;0.42;74.92;93456.78;5110060;28;20191;-78
2020/12/04 00:41:24;;;;;;;19.10;13.70;;;;;;;0.35;75.42;93445.78;5092270;28;20556;-78
2020/12/04 00:43:50;;;;;;;20.40;14.33;;;;;;;0.30;76.02;93445.47;5103585;28;20227;-78
2020/12/04 00:46:16;;;;;;;17.80;13.33;;;;;;;0.37;75.45;93446.41;5090877;28;20732;-78
2020/12/04 00:48:43;;;;;;;21.50;14.10;;;;;;;0.39;75.26;93441.94;5090948;28;20771;-78
2020/12/04 00:51:11;;;;;;;17.40;12.97;;;;;;;0.44;75.41;93429.56;5090978;28;20285;-78
2020/12/04 00:53:37;;;;;;;20.37;13.23;;;;;;;0.52;74.98;93426.22;5096276;28;20191;-78
2020/12/04 00:56:03;;;;;;;18.43;13.40;;;;;;;0.48;74.67;93423.22;5111281;28;20253;-78
2020/12/04 00:58:32;;;;;;;17.23;13.23;;;;;;;0.34;75.49;93409.56;5107372;28;20658;-78
2020/12/04 01:00:58;;;;;;;18.00;13.40;;;;;;;0.37;75.86;93412.72;5090433;28;20769;-78
2020/12/04 01:03:24;;;;;;;19.77;13.47;;;;;;;0.43;75.28;93415.34;5094271;28;20192;-78
2020/12/04 01:05:49;;;;;;;18.67;13.80;;;;;;;0.48;74.73;93399.66;5111229;28;20209;-78
2020/12/04 01:08:16;;;;;;;18.07;13.50;;;;;;;0.51;75.04;93409.44;5109029;28;20243;-78
2020/12/04 01:10:45;;;;;;;19.50;13.27;;;;;;;0.39;75.04;93388.78;5091038;28;20235;-78
2020/12/04 01:13:11;;;;;;;18.63;13.97;;;;;;;0.20;76.36;93397.63;5091803;28;20208;-78
2020/12/04 01:15:37;;;;;;;20.17;14.10;;;;;;;0.18;76.72;93393.69;5111177;28;20195;-78
2020/12/04 01:18:03;;;;;;;18.30;13.10;;;;;;;0.29;76.91;93400.91;5100110;28;20231;-78
2020/12/04 01:20:30;;;;;;;18.93;13.67;;;;;;;0.46;75.26;93399.81;5091653;28;20638;-78
2020/12/04 01:22:58;;;;;;;21.23;14.20;;;;;;;0.57;74.62;93399.44;5104317;28;20199;-78
2020/12/04 01:25:25;;;;;;;18.17;12.63;;;;;;;0.61;74.36;93403.19;5095136;28;20547;-78
2020/12/04 01:27:51;;;;;;;20.07;13.20;;;;;;;0.63;74.01;93403.03;5102770;28;20222;-78
2020/12/04 01:30:17;;;;;;;16.37;12.53;;;;;;;0.55;74.34;93400.56;5115533;28;20593;-78
2020/12/04 01:32:43;;;;;;;19.63;13.23;;;;;;;0.60;74.76;93390.69;5109024;28;20200;-78
2020/12/04 01:35:09;;;;;;;19.27;13.60;;;;;;;0.71;73.93;93399.66;5112477;28;20199;-78
2020/12/04 01:37:35;;;;;;;17.00;13.27;;;;;;;0.72;74.12;93396.16;5101576;28;20257;-78
2020/12/04 01:40:01;;;;;;;16.87;13.13;;;;;;;0.61;74.32;93389.75;5094972;28;20206;-78
2020/12/04 01:42:28;;;;;;;16.53;12.50;;;;;;;0.61;74.59;93384.69;5107017;28;20191;-79
2020/12/04 01:44:54;;;;;;;19.23;13.57;;;;;;;0.71;73.84;93369.28;5099887;28;20249;-78
2020/12/04 01:47:21;;;;;;;18.40;12.97;;;;;;;0.84;73.83;93374.53;5104901;28;20191;-78
2020/12/04 01:49:47;;;;;;;17.67;13.30;;;;;;;0.87;73.29;93376.72;5115193;28;20796;-78
2020/12/04 01:52:14;;;;;;;16.63;12.67;;;;;;;0.77;73.25;93373.66;5105837;28;20322;-78
2020/12/04 01:54:41;;;;;;;17.47;13.00;;;;;;;0.63;74.10;93365.03;5107674;28;20267;-78
2020/12/04 01:57:07;;;;;;;18.07;13.20;;;;;;;0.57;74.27;93368.28;5107257;28;20576;-78
2020/12/04 01:59:34;;;;;;;16.90;12.93;;;;;;;0.61;74.45;93361.91;5106215;28;20601;-78
2020/12/04 02:02:09;;;;;;;16.30;12.23;;;;;;;0.69;73.91;93367.69;5112777;28;20219;-78
2020/12/04 02:04:35;;;;;;;17.13;13.23;;;;;;;0.72;73.81;93363.25;5114846;28;20244;-78
2020/12/04 02:07:07;;;;;;;19.27;13.73;;;;;;;0.75;73.50;93358.63;5108453;28;20558;-78
2020/12/04 02:09:38;;;;;;;18.93;13.47;;;;;;;0.86;73.25;93354.88;5093678;28;20219;-78
2020/12/04 02:12:06;;;;;;;20.63;12.97;;;;;;;0.79;73.43;93359.06;5100136;28;20209;-78
2020/12/04 02:14:32;;;;;;;16.60;12.30;;;;;;;0.80;73.22;93346.22;5114409;28;20249;-78
2020/12/04 02:17:04;;;;;;;17.10;13.13;;;;;;;0.66;73.50;93336.88;5109123;28;20683;-78
2020/12/04 02:19:35;;;;;;;18.50;13.33;;;;;;;0.46;74.99;93321.38;5094136;28;20196;-77
2020/12/04 02:22:02;;;;;;;17.00;12.87;;;;;;;0.39;75.52;93319.69;5099246;28;20615;-77
2020/12/04 02:24:29;;;;;;;16.27;12.90;;;;;;;0.25;75.79;93318.69;5114259;28;20211;-77
2020/12/04 02:26:56;;;;;;;16.73;13.33;;;;;;;0.25;76.13;93327.06;5109573;28;20222;-77
2020/12/04 02:29:22;;;;;;;18.43;12.50;;;;;;;0.29;76.12;93323.25;5094093;28;20216;-78
2020/12/04 02:31:48;;;;;;;17.33;12.67;;;;;;;0.37;75.86;93324.16;5109088;28;20569;-78
2020/12/04 02:34:14;;;;;;;19.20;13.47;;;;;;;0.46;75.22;93318.03;5099150;28;20196;-78
2020/12/04 02:36:40;;;;;;;16.80;12.77;;;;;;;0.60;74.35;93319.81;5114021;28;20682;-77
2020/12/04 02:39:07;;;;;;;16.73;12.70;;;;;;;0.56;74.49;93313.53;5109829;28;20192;-77
2020/12/04 02:41:33;;;;;;;18.03;12.93;;;;;;;0.59;74.09;93308.13;5094298;28;20220;-77
2020/12/04 02:44:01;;;;;;;17.30;12.60;;;;;;;0.42;74.82;93296.56;5112246;28;20248;-77
2020/12/04 02:46:27;;;;;;;17.60;13.33;;;;;;;0.48;74.91;93293.34;5113816;28;20570;-76
2020/12/04 02:48:52;;;;;;;16.70;13.03;;;;;;;0.44;74.98;93290.38;5112684;28;20222;-77
2020/12/04 02:51:18;;;;;;;17.43;12.80;;;;;;;0.51;74.94;93282.91;5114459;28;20306;-76
2020/12/04 02:53:44;;;;;;;18.50;12.30;;;;;;;0.57;74.78;93280.47;5095927;28;20218;-76
2020/12/04 02:56:16;;;;;;;16.97;12.70;;;;;;;0.59;74.25;93270.16;5109267;28;20684;-77
2020/12/04 02:58:42;;;;;;;18.33;12.97;;;;;;;0.62;74.42;93277.41;5097728;28;20196;-76
2020/12/04 03:01:08;;;;;;;15.30;12.17;;;;;;;0.74;73.60;93272.72;5115379;28;20237;-76
2020/12/04 03:03:34;;;;;;;17.63;12.57;;;;;;;0.91;73.11;93269.03;5097653;28;20206;-77
2020/12/04 03:05:59;;;;;;;15.70;11.93;;;;;;;0.90;72.78;93270.00;5094958;28;20685;-77
2020/12/04 03:08:25;;;;;;;18.63;12.63;;;;;;;0.89;72.94;93271.75;5108929;28;20204;-78
2020/12/04 03:10:51;;;;;;;17.80;13.07;;;;;;;0.76;73.57;93276.66;5093563;28;20226;-77
2020/12/04 03:13:18;;;;;;;17.37;12.70;;;;;;;0.71;73.76;93268.00;5107970;28;20282;-77
2020/12/04 03:15:44;;;;;;;17.80;12.83;;;;;;;0.66;73.99;93255.84;5113361;28;20200;-77
2020/12/04 03:18:10;;;;;;;16.57;12.40;;;;;;;0.69;73.67;93261.34;5099915;28;20200;-77
2020/12/04 03:20:36;;;;;;;16.67;12.10;;;;;;;0.68;73.56;93256.47;5093436;28;20212;-77
2020/12/04 03:23:01;;;;;;;17.20;11.83;;;;;;;0.78;73.73;93246.84;5105445;28;20279;-77
2020/12/04 03:25:27;;;;;;;15.50;11.97;;;;;;;0.75;73.13;93246.44;5109897;28;20581;-77
2020/12/04 03:27:53;;;;;;;15.97;11.87;;;;;;;0.73;73.63;93249.13;5113327;28;20205;-76
2020/12/04 03:30:20;;;;;;;18.60;12.17;;;;;;;0.84;73.06;93256.28;5104695;28;20220;-76
2020/12/04 03:32:46;;;;;;;14.80;11.70;;;;;;;0.92;73.07;93252.88;5102365;28;20203;-77
2020/12/04 03:35:12;;;;;;;17.67;13.00;;;;;;;1.04;72.47;93248.94;5105982;28;20636;-77
2020/12/04 03:37:38;;;;;;;14.80;12.10;;;;;;;0.91;72.31;93246.25;5105302;28;20195;-77
2020/12/04 03:40:04;;;;;;;16.40;11.87;;;;;;;0.95;72.24;93242.41;5111470;28;20565;-76
2020/12/04 03:42:30;;;;;;;16.10;11.87;;;;;;;0.85;72.52;93239.34;5105245;28;20196;-77
2020/12/04 03:44:55;;;;;;;15.57;11.80;;;;;;;0.81;72.98;93238.91;5094550;28;20192;-75
2020/12/04 03:47:22;;;;;;;16.23;12.40;;;;;;;0.74;72.98;93230.44;5112879;28;20199;-76
2020/12/04 03:49:51;;;;;;;15.50;11.80;;;;;;;0.74;73.48;93219.53;5111200;28;20578;-78
2020/12/04 03:52:20;;;;;;;14.73;11.80;;;;;;;0.78;72.90;93216.47;5097589;28;20196;-78
2020/12/04 03:54:46;;;;;;;14.50;11.53;;;;;;;0.79;73.29;93214.72;5102366;28;20204;-78
2020/12/04 03:57:11;;;;;;;16.10;11.90;;;;;;;0.84;73.12;93209.91;5092114;28;20223;-78
2020/12/04 03:59:37;;;;;;;16.03;12.60;;;;;;;0.74;72.96;93214.47;5100197;28;20198;-78
2020/12/04 04:02:03;;;;;;;15.50;11.50;;;;;;;0.77;73.05;93216.66;5108769;28;20231;-78
2020/12/04 04:04:30;;;;;;;15.00;11.37;;;;;;;0.84;72.85;93215.75;5091977;28;20582;-78
2020/12/04 04:06:56;;;;;;;17.27;12.17;;;;;;;0.93;72.61;93213.94;5091651;28;20678;-78
2020/12/04 04:09:22;;;;;;;14.20;11.43;;;;;;;1.03;72.20;93207.63;5092105;28;20277;-78
2020/12/04 04:11:48;;;;;;;15.17;11.90;;;;;;;1.15;71.82;93205.44;5091845;28;20220;-78
2020/12/04 04:14:14;;;;;;;15.77;11.73;;;;;;;1.18;71.99;93210.13;5091467;28;20357;-78
2020/12/04 04:16:40;;;;;;;19.97;12.10;;;;;;;1.22;71.64;93215.63;5092108;28;20203;-78
2020/12/04 04:19:06;;;;;;;15.07;11.50;;;;;;;1.06;71.29;93209.03;5092700;28;20256;-78
2020/12/04 04:21:39;;;;;;;13.43;11.33;;;;;;;1.09;71.41;93218.81;5112055;28;20243;-78
2020/12/04 04:24:04;;;;;;;16.83;11.93;;;;;;;1.04;71.13;93203.34;5093377;28;20196;-78
2020/12/04 04:26:30;;;;;;;16.70;11.97;;;;;;;1.13;71.72;93207.34;5091897;28;20249;-78
2020/12/04 04:28:56;;;;;;;15.07;11.33;;;;;;;1.20;71.41;93194.75;5092774;28;20286;-79
2020/12/04 04:31:22;;;;;;;15.23;11.47;;;;;;;1.28;71.37;93199.72;5110630;28;20226;-78
2020/12/04 04:33:48;;;;;;;15.03;12.00;;;;;;;1.21;71.15;93203.91;5095036;28;20567;-78
2020/12/04 04:36:14;;;;;;;15.60;11.40;;;;;;;1.14;71.05;93208.94;5091487;28;20226;-78
2020/12/04 04:38:40;;;;;;;15.80;11.47;;;;;;;1.15;71.16;93207.19;5092182;28;20191;-79
2020/12/04 04:41:06;;;;;;;14.87;11.57;;;;;;;1.11;70.96;93199.16;5108650;28;20216;-78
2020/12/04 04:43:32;;;;;;;13.13;10.73;;;;;;;1.07;70.84;93197.94;5102236;28;20200;-78
2020/12/04 04:46:17;;;;;;;15.13;11.43;;;;;;;1.02;71.10;93202.72;5091222;28;20200;-78
2020/12/04 04:48:51;;;;;;;15.17;10.47;;;;;;;0.87;71.80;93202.75;5106435;28;20199;-78
2020/12/04 04:51:18;;;;;;;14.53;10.70;;;;;;;0.84;72.12;93197.25;5093861;28;20308;-78
2020/12/04 04:53:52;;;;;;;15.63;10.77;;;;;;;0.91;72.10;93201.44;5105815;28;20203;-78
2020/12/04 04:56:18;;;;;;;13.40;10.23;;;;;;;0.96;71.69;93188.25;5099267;28;20211;-78
2020/12/04 04:58:44;;;;;;;15.47;10.73;;;;;;;0.95;71.60;93189.22;5091250;28;20564;-78
2020/12/04 05:01:10;;;;;;;13.70;10.37;;;;;;;0.98;71.81;93187.09;5125710;22;20227;-79
2020/12/04 05:03:35;;;;;;;13.03;10.57;;;;;;;1.05;71.69;93184.66;5093280;28;20203;-79
2020/12/04 05:06:01;;;;;;;14.33;10.70;;;;;;;1.09;71.79;93187.63;5092158;28;20217;-79
2020/12/04 05:08:27;;;;;;;15.07;11.10;;;;;;;1.09;71.24;93178.28;5092429;28;20227;-78
2020/12/04 05:11:07;;;;;;;13.17;10.00;;;;;;;1.14;71.30;93181.06;5092214;28;20224;-79
2020/12/04 05:13:33;;;;;;;13.67;10.03;;;;;;;1.06;71.21;93185.44;5092418;28;20828;-78
2020/12/04 05:15:59;;;;;;;13.20;10.07;;;;;;;0.96;72.13;93183.94;5076484;28;20211;-78
2020/12/04 05:18:25;;;;;;;12.40;9.90;;;;;;;0.95;71.99;93184.16;5093117;28;20200;-78
2020/12/04 05:20:52;;;;;;;16.00;10.30;;;;;;;1.06;71.79;93185.44;5091805;28;20212;-78
2020/12/04 05:23:19;;;;;;;13.53;10.07;;;;;;;1.18;71.31;93191.59;5092535;28;20200;-79
2020/12/04 05:25:46;;;;;;;14.53;10.17;;;;;;;1.25;70.91;93192.47;5092454;28;20235;-78
2020/12/04 05:28:15;;;;;;;13.07;9.93;;;;;;;1.24;71.24;93193.44;5077051;28;20197;-79
2020/12/04 05:30:42;;;;;;;232.63;149.90;;;;;;;1.19;72.61;93195.72;5072547;28;20220;-78
2020/12/04 05:33:09;;;;;;;21.23;16.70;;;;;;;1.12;72.13;93190.59;5087864;28;20655;-78
2020/12/04 05:35:36;;;;;;;13.43;10.63;;;;;;;1.21;71.30;93193.78;5092857;28;20200;-78
2020/12/04 05:38:13;;;;;;;14.13;10.17;;;;;;;1.29;71.23;93196.22;5078517;28;20204;-78
2020/12/04 05:40:42;;;;;;;13.00;9.93;;;;;;;1.22;71.20;93200.41;5072112;28;20223;-78
2020/12/04 05:43:09;;;;;;;13.67;10.00;;;;;;;1.06;72.45;93198.88;5087154;28;20203;-79
2020/12/04 05:45:36;;;;;;;13.73;9.83;;;;;;;1.09;71.86;93211.22;5092376;28;20200;-79
2020/12/04 05:48:01;;;;;;;12.97;9.43;;;;;;;1.10;71.71;93195.03;5076266;28;20193;-78
2020/12/04 05:50:28;;;;;;;11.70;9.50;;;;;;;1.06;72.32;93193.81;5083021;28;20640;-78
2020/12/04 05:52:54;;;;;;;12.83;10.00;;;;;;;1.05;72.04;93187.19;5079155;28;20593;-79
2020/12/04 05:55:20;;;;;;;12.97;9.57;;;;;;;1.12;71.96;93190.59;5080758;28;20926;-79
2020/12/04 05:57:50;;;;;;;12.70;10.27;;;;;;;1.06;72.01;93200.63;5078826;28;20235;-79
2020/12/04 06:00:16;;;;;;;59.97;38.70;;;;;;;1.14;72.65;93200.53;5080411;28;20347;-79
2020/12/04 06:02:43;;;;;;;25.00;18.40;;;;;;;1.18;71.87;93202.53;5080688;28;20220;-77
2020/12/04 06:05:10;;;;;;;20.30;14.70;;;;;;;1.23;71.78;93199.47;5073118;28;20561;-77
2020/12/04 06:07:37;;;;;;;18.07;12.70;;;;;;;1.40;71.55;93208.41;5079996;28;20197;-79
2020/12/04 06:10:04;;;;;;;14.67;11.03;;;;;;;1.54;71.41;93201.75;5096145;28;20760;-78
2020/12/04 06:12:30;;;;;;;13.50;10.33;;;;;;;1.65;70.55;93208.88;5096576;28;20220;-79
2020/12/04 06:15:20;;;;;;;13.60;9.87;;;;;;;1.67;70.57;93202.66;5095628;28;20211;-77
2020/12/04 06:17:48;;;;;;;12.83;9.47;;;;;;;1.55;70.80;93211.69;5082061;28;20663;-78
2020/12/04 06:20:16;;;;;;;13.43;9.57;;;;;;;1.55;70.82;93204.06;5083680;28;20200;-77
2020/12/04 06:23:04;;;;;;;13.53;9.70;;;;;;;1.61;70.69;93215.25;5075875;28;20216;-79
2020/12/04 06:25:55;;;;;;;12.53;6.87;;;;;;;2.24;99.85;93211.91;5088498;28;20219;-77
2020/12/04 06:28:23;;;;;;;11.17;8.97;;;;;;;2.62;77.33;93206.47;5095764;28;20262;-78
2020/12/04 06:30:58;;;;;;;12.53;9.67;;;;;;;2.58;70.75;93202.75;5094673;28;20714;-79
2020/12/04 06:33:39;;;;;;;12.57;9.37;;;;;;;2.51;70.51;93199.38;5081948;28;20290;-78
2020/12/04 06:36:07;;;;;;;13.13;8.90;;;;;;;2.45;69.93;93202.66;5076233;28;20729;-78
2020/12/04 06:38:44;;;;;;;12.07;9.17;;;;;;;2.43;69.07;93215.56;5096073;28;20209;-79
2020/12/04 06:41:21;;;;;;;11.20;8.90;;;;;;;2.33;68.93;93210.00;5078423;28;20763;-79
2020/12/04 06:43:49;;;;;;;10.03;8.33;;;;;;;2.23;68.88;93205.25;5080545;28;20280;-79
2020/12/04 06:46:31;;;;;;;11.57;8.90;;;;;;;2.14;69.37;93195.41;5085306;28;20200;-79
2020/12/04 06:49:11;;;;;;;11.27;8.90;;;;;;;2.16;69.32;93190.94;5096063;28;20200;-80
2020/12/04 06:51:38;;;;;;;11.07;8.73;;;;;;;2.21;69.51;93196.25;5089151;28;20590;-79
2020/12/04 06:54:05;;;;;;;12.10;8.73;;;;;;;2.30;69.56;93203.56;5076154;28;20220;-78
2020/12/04 06:56:31;;;;;;;14.83;9.90;;;;;;;2.21;73.61;93191.19;5095021;28;20220;-79
2020/12/04 06:58:57;;;;;;;13.33;9.27;;;;;;;2.26;71.81;93189.66;5080886;28;20192;-79
2020/12/04 07:01:24;;;;;;;12.93;9.37;;;;;;;2.27;70.64;93180.28;5081219;28;20220;-79
2020/12/04 07:03:54;;;;;;;13.67;10.00;;;;;;;2.24;70.77;93188.28;5075452;28;20269;-79
2020/12/04 07:06:22;;;;;;;12.90;9.53;;;;;;;2.09;70.51;93193.44;5075610;28;20205;-79
2020/12/04 07:08:58;;;;;;;12.40;9.23;;;;;;;2.18;70.91;93202.47;5075565;28;20200;-79
2020/12/04 07:11:25;;;;;;;17.40;11.43;;;;;;;2.19;71.27;93204.06;5093419;28;20231;-78
2020/12/04 07:13:51;;;;;;;16.27;10.53;;;;;;;2.28;70.94;93202.97;5095686;28;20260;-78
2020/12/04 07:16:17;;;;;;;13.57;10.47;;;;;;;2.34;70.49;93204.72;5077120;28;20679;-79
2020/12/04 07:18:47;;;;;;;15.27;10.67;;;;;;;2.35;70.62;93206.31;5081755;28;20192;-79
2020/12/04 07:21:13;;;;;;;16.47;10.23;;;;;;;2.38;70.62;93200.88;5095698;28;20212;-78
2020/12/04 07:23:40;;;;;;;12.93;9.50;;;;;;;2.44;70.37;93194.28;5088441;28;20224;-79
2020/12/04 07:26:13;;;;;;;14.17;10.00;;;;;;;2.34;70.36;93191.25;5090072;28;20200;-79
2020/12/04 07:28:39;;;;;;;13.40;10.77;;;;;;;2.26;70.33;93193.94;5095356;28;20204;-79
2020/12/04 07:31:14;;;;;;;17.23;10.90;;;;;;;2.24;70.56;93198.44;5081664;28;20215;-78
2020/12/04 07:33:50;;;;;;;12.70;10.47;;;;;;;2.26;70.46;93199.03;5092397;28;20831;-79
2020/12/04 07:36:16;;;;;;;15.83;10.20;;;;;;;2.34;70.77;93198.88;5105801;28;20205;-77
2020/12/04 07:38:53;;;;;;;14.33;10.33;;;;;;;2.45;70.41;93200.13;5074717;28;20613;-79
2020/12/04 07:41:29;;;;;;;15.30;10.33;;;;;;;2.52;69.97;93199.19;5090440;28;20218;-78
2020/12/04 07:43:59;;;;;;;14.07;10.80;;;;;;;2.60;70.03;93203.34;5093937;28;20222;-78
2020/12/04 07:46:25;;;;;;;14.77;11.00;;;;;;;2.66;69.56;93195.00;5091625;28;20200;-79
2020/12/04 07:49:05;;;;;;;15.33;10.87;;;;;;;2.71;69.90;93190.91;5110528;28;20242;-79
2020/12/04 07:51:34;;;;;;;16.17;10.70;;;;;;;2.73;69.87;93185.63;5077091;28;20227;-79
2020/12/04 07:54:04;;;;;;;18.90;11.63;;;;;;;2.72;69.45;93189.13;5074007;28;20204;-79
2020/12/04 07:56:31;;;;;;;14.43;10.90;;;;;;;2.72;69.26;93199.31;5088207;28;20192;-79
2020/12/04 07:59:01;;;;;;;18.90;12.03;;;;;;;2.71;69.24;93193.44;5086004;28;20200;-79
2020/12/04 08:01:28;;;;;;;18.23;11.87;;;;;;;2.76;69.25;93200.50;5081317;28;20244;-77
2020/12/04 08:03:54;;;;;;;17.43;12.17;;;;;;;2.79;69.47;93184.88;5073350;28;20197;-78
2020/12/04 08:06:26;;;;;;;13.73;11.33;;;;;;;2.80;69.26;93183.91;5082210;28;20225;-79
2020/12/04 08:09:10;;;;;;;16.53;12.30;;;;;;;2.83;68.93;93183.53;5073641;28;20205;-79
2020/12/04 08:11:39;;;;;;;16.97;12.30;;;;;;;2.83;69.04;93173.38;5084126;28;20605;-78
2020/12/04 08:14:05;;;;;;;20.13;12.40;;;;;;;2.64;69.06;93174.84;5093208;28;20200;-79
2020/12/04 08:16:32;;;;;;;16.33;11.17;;;;;;;2.56;69.19;93187.69;5084322;28;20224;-78
2020/12/04 08:19:03;;;;;;;14.63;10.27;;;;;;;2.54;69.64;93182.00;5093320;28;20295;-80
2020/12/04 08:21:29;;;;;;;15.97;10.80;;;;;;;2.62;69.48;93178.56;5082687;28;20315;-79
2020/12/04 08:23:55;;;;;;;16.80;11.07;;;;;;;2.68;69.34;93178.59;5080243;28;20788;-79
2020/12/04 08:26:22;;;;;;;20.57;11.23;;;;;;;2.77;69.13;93184.28;5094176;28;20635;-78
2020/12/04 08:28:53;;;;;;;14.07;10.93;;;;;;;2.86;69.53;93179.84;5094328;28;20200;-79
2020/12/04 08:31:22;;;;;;;14.30;10.10;;;;;;;2.93;68.62;93189.06;5074822;28;20224;-79
2020/12/04 08:33:48;;;;;;;15.43;10.90;;;;;;;2.98;68.82;93194.34;5072663;28;20204;-79
2020/12/04 08:36:14;;;;;;;14.87;11.10;;;;;;;3.00;68.87;93189.88;5087766;28;20234;-79
2020/12/04 08:38:49;;;;;;;15.17;10.80;;;;;;;3.04;68.48;93203.00;5093455;28;20227;-78
2020/12/04 08:41:15;;;;;;;17.53;11.33;;;;;;;3.07;68.44;93202.63;5076789;28;20222;-79
2020/12/04 08:43:42;;;;;;;15.87;10.60;;;;;;;3.08;68.48;93207.47;5076829;28;20561;-80
2020/12/04 08:46:10;;;;;;;14.93;10.80;;;;;;;3.09;67.87;93205.72;5092689;28;20570;-78
2020/12/04 08:48:37;;;;;;;18.93;10.70;;;;;;;3.11;67.99;93208.88;5089955;28;20593;-80
2020/12/04 08:51:05;;;;;;;15.90;10.47;;;;;;;3.09;68.38;93203.19;5086538;28;20216;-79
2020/12/04 08:53:31;;;;;;;19.30;10.73;;;;;;;3.16;68.44;93211.63;5090754;28;20204;-80
2020/12/04 08:55:59;;;;;;;19.50;10.93;;;;;;;3.20;68.25;93210.28;5076301;28;20192;-79
2020/12/04 08:58:26;;;;;;;15.80;10.87;;;;;;;3.26;68.35;93213.84;5091440;28;20196;-79
2020/12/04 09:00:55;;;;;;;12.93;9.70;;;;;;;3.33;68.28;93204.44;5092024;28;20672;-79
2020/12/04 09:03:22;;;;;;;14.63;9.90;;;;;;;3.38;68.21;93209.75;5092859;28;20191;-79
2020/12/04 09:05:49;;;;;;;17.50;11.20;;;;;;;3.41;68.25;93204.28;5083665;28;20196;-79
2020/12/04 09:08:15;;;;;;;15.53;11.40;;;;;;;3.41;67.96;93196.66;5090254;28;20193;-79
2020/12/04 09:10:41;;;;;;;14.73;11.43;;;;;;;3.44;68.00;93203.91;5079868;28;20586;-79
2020/12/04 09:13:11;;;;;;;15.10;11.60;;;;;;;3.34;67.87;93200.94;5075044;28;20746;-78
2020/12/04 09:15:37;;;;;;;17.57;11.57;;;;;;;3.32;67.76;93192.72;5092675;28;20595;-78
2020/12/04 09:18:04;;;;;;;14.33;10.40;;;;;;;3.29;68.32;93196.41;5091253;28;20207;-79
2020/12/04 09:20:30;;;;;;;14.90;10.60;;;;;;;3.34;68.46;93190.75;5082321;28;20662;-79
2020/12/04 09:22:57;;;;;;;15.20;11.80;;;;;;;3.36;68.36;93189.59;5092224;28;20220;-79
2020/12/04 09:25:23;;;;;;;16.27;11.10;;;;;;;3.34;68.54;93195.84;5090361;28;20279;-79
2020/12/04 09:27:50;;;;;;;16.90;10.80;;;;;;;3.31;68.53;93189.38;5075294;28;20253;-79
2020/12/04 09:30:18;;;;;;;17.77;11.67;;;;;;;3.31;68.25;93191.16;5084252;28;20268;-79
2020/12/04 09:32:45;;;;;;;17.80;11.67;;;;;;;3.35;68.24;93188.03;5073568;28;20227;-78
2020/12/04 09:35:13;;;;;;;17.80;11.37;;;;;;;3.40;68.37;93184.94;5093184;28;20203;-78
2020/12/04 09:37:39;;;;;;;15.67;11.03;;;;;;;3.46;68.37;93179.09;5092281;28;20192;-79
2020/12/04 09:40:08;;;;;;;17.93;11.13;;;;;;;3.50;68.08;93167.53;5080852;28;20199;-78
2020/12/04 09:42:34;;;;;;;17.20;11.00;;;;;;;3.53;68.18;93156.97;5094601;28;20686;-79
2020/12/04 09:45:00;;;;;;;18.07;10.87;;;;;;;3.56;68.02;93156.59;5096348;28;20207;-79
2020/12/04 09:47:27;;;;;;;13.93;10.97;;;;;;;3.58;67.92;93156.41;5095186;28;20211;-79
2020/12/04 09:49:53;;;;;;;13.63;10.70;;;;;;;3.57;67.76;93149.75;5091804;28;20223;-79
2020/12/04 09:52:20;;;;;;;14.23;9.93;;;;;;;3.45;67.34;93157.16;5095885;28;20216;-80
2020/12/04 09:54:48;;;;;;;15.07;9.63;;;;;;;3.57;77.27;93155.63;5075329;28;20212;-77
2020/12/04 09:57:15;;;;;;;17.10;9.43;;;;;;;3.90;77.62;93135.28;5077291;28;20743;-81
2020/12/04 09:59:41;;;;;;;14.50;9.00;;;;;;;4.42;77.56;93141.31;5094188;28;20208;-79
2020/12/04 10:02:09;;;;;;;12.63;9.77;;;;;;;4.25;66.13;93122.31;5075588;28;20221;-79
2020/12/04 10:04:35;;;;;;;14.53;10.20;;;;;;;4.01;66.63;93127.06;5077408;28;20600;-77
2020/12/04 10:07:01;;;;;;;16.97;10.13;;;;;;;4.00;67.91;93124.72;5090572;28;20685;-78
2020/12/04 10:09:29;;;;;;;14.30;9.90;;;;;;;3.92;67.07;93115.50;5093842;28;20595;-78
2020/12/04 10:11:56;;;;;;;12.17;10.00;;;;;;;3.96;67.36;93114.13;5099047;28;20215;-78
2020/12/04 10:14:24;;;;;;;17.13;10.57;;;;;;;3.88;66.93;93119.41;5084399;28;20207;-78
2020/12/04 10:16:50;;;;;;;14.00;10.57;;;;;;;3.84;67.05;93122.56;5080429;28;20589;-78
2020/12/04 10:19:17;;;;;;;14.00;10.17;;;;;;;3.76;67.46;93110.81;5090812;28;20197;-78
2020/12/04 10:21:45;;;;;;;15.53;10.37;;;;;;;3.88;67.51;93111.00;5078483;28;20208;-77
2020/12/04 10:24:11;;;;;;;14.33;10.67;;;;;;;3.92;67.46;93114.72;5101632;28;20196;-77
2020/12/04 10:26:39;;;;;;;17.13;9.97;;;;;;;3.84;67.11;93109.84;5101254;28;20200;-78
2020/12/04 10:29:06;;;;;;;16.07;10.00;;;;;;;3.87;67.89;93104.34;5078380;28;20229;-76
2020/12/04 10:31:32;;;;;;;12.23;10.03;;;;;;;3.85;67.07;93104.53;5091626;28;20228;-78
2020/12/04 10:33:58;;;;;;;15.20;9.63;;;;;;;3.73;67.86;93094.16;5080842;28;20234;-78
2020/12/04 10:36:26;;;;;;;18.03;10.07;;;;;;;3.72;67.96;93082.44;5083031;28;20288;-78
2020/12/04 10:38:52;;;;;;;15.33;9.37;;;;;;;3.71;67.38;93075.00;5088377;28;20254;-78
2020/12/04 10:41:18;;;;;;;14.30;8.77;;;;;;;3.76;68.05;93067.56;5077744;28;20695;-78
2020/12/04 10:43:45;;;;;;;13.60;8.67;;;;;;;3.72;67.20;93072.25;5083678;28;20199;-77
2020/12/04 10:46:11;;;;;;;16.03;8.87;;;;;;;3.80;67.28;93066.19;5093501;28;20199;-78
2020/12/04 10:48:36;;;;;;;13.40;8.53;;;;;;;3.77;67.03;93067.38;5093933;28;20604;-78
2020/12/04 10:51:02;;;;;;;13.60;8.43;;;;;;;3.85;67.10;93073.25;5094118;28;20328;-78
2020/12/04 10:53:29;;;;;;;12.93;8.03;;;;;;;3.92;67.13;93064.59;5091035;28;20196;-79
2020/12/04 10:55:55;;;;;;;10.53;7.33;;;;;;;3.95;66.85;93071.84;5079251;28;20838;-78
2020/12/04 10:58:21;;;;;;;15.50;8.57;;;;;;;3.97;66.37;93059.72;5095196;28;20218;-78
2020/12/04 11:00:49;;;;;;;10.23;7.37;;;;;;;4.02;66.71;93056.56;5099751;28;20202;-78
2020/12/04 11:03:22;;;;;;;13.17;7.83;;;;;;;4.09;66.97;93054.78;5094203;22;20228;-77
2020/12/04 11:05:48;;;;;;;16.30;8.60;;;;;;;4.15;67.12;93052.22;5072839;28;20591;-77
2020/12/04 11:08:15;;;;;;;12.77;8.43;;;;;;;4.24;67.02;93052.78;5072002;28;20211;-77
2020/12/04 11:10:42;;;;;;;17.17;10.30;;;;;;;4.30;66.78;93039.25;5072351;28;20217;-76
2020/12/04 11:13:08;;;;;;;16.57;8.93;;;;;;;4.39;66.74;93044.91;5072600;28;20217;-76
2020/12/04 11:15:35;;;;;;;14.70;9.53;;;;;;;4.44;66.72;93040.75;5065933;28;20211;-77
2020/12/04 11:18:02;;;;;;;15.17;9.80;;;;;;;4.48;66.29;93046.25;5071270;28;20201;-76
2020/12/04 11:20:28;;;;;;;13.93;9.37;;;;;;;4.54;66.75;93054.84;5070908;28;20591;-76
2020/12/04 11:22:54;;;;;;;16.17;10.33;;;;;;;4.57;66.78;93051.91;5068139;28;20201;-76
2020/12/04 11:25:21;;;;;;;15.30;10.17;;;;;;;4.59;66.52;93045.63;5071821;28;20208;-77
2020/12/04 11:27:48;;;;;;;12.53;9.73;;;;;;;4.66;66.22;93035.41;5068986;28;20582;-77
2020/12/04 11:30:16;;;;;;;13.80;9.70;;;;;;;4.69;65.89;93022.25;5052221;28;20221;-76